Time;durP1;ratioP1;P1;durP2;ratioP2;P2;SDS_P1;SDS_P2;PMS_P1;PMS_P2;Temp;Humidity;BMP_temperature;BMP_pressure;BME280_temperature;BME280_humidity;BME280_pressure;Samples;Min_cycle;Max_cycle;Signal;HPM_P1;HPM_P2
2023/05/22 00:00:06;;;;;;;36.78;29.00;;;17.00;99.90;;;;;;4863422;29;20048;-81
2023/05/22 00:02:42;;;;;;;36.08;29.65;;;17.00;99.90;;;;;;4861800;29;20047;-82
2023/05/22 00:05:12;;;;;;;35.20;29.25;;;17.00;99.90;;;;;;4846175;29;20408;-81
2023/05/22 00:07:56;;;;;;;35.60;27.98;;;17.00;99.90;;;;;;4865517;29;20387;-82
2023/05/22 00:10:22;;;;;;;36.75;27.23;;;16.90;99.90;;;;;;4861487;29;20531;-81
2023/05/22 00:12:54;;;;;;;34.05;27.83;;;17.00;99.90;;;;;;4847081;29;20140;-81
2023/05/22 00:15:29;;;;;;;35.17;28.67;;;17.00;99.90;;;;;;4856407;29;20140;-81
2023/05/22 00:17:58;;;;;;;33.30;28.42;;;17.00;99.90;;;;;;4853658;29;20076;-81
2023/05/22 00:20:25;;;;;;;40.33;31.75;;;17.00;99.90;;;;;;4859989;29;20136;-81
2023/05/22 00:22:52;;;;;;;35.25;28.05;;;17.00;99.90;;;;;;4848444;29;20041;-81
2023/05/22 00:25:19;;;;;;;34.65;27.52;;;17.10;99.90;;;;;;4864752;29;20053;-81
2023/05/22 00:27:46;;;;;;;37.13;29.75;;;17.10;99.90;;;;;;4846876;29;20049;-81
2023/05/22 00:30:12;;;;;;;34.75;27.88;;;17.10;99.90;;;;;;4847173;29;20477;-82
2023/05/22 00:32:38;;;;;;;33.60;28.88;;;17.10;99.90;;;;;;4876642;29;20060;-83
2023/05/22 00:35:05;;;;;;;34.72;29.77;;;17.20;99.90;;;;;;4854693;29;20077;-84
2023/05/22 00:37:33;;;;;;;35.78;29.23;;;17.10;99.90;;;;;;4861407;29;20049;-82
2023/05/22 00:40:02;;;;;;;30.23;26.15;;;17.20;99.90;;;;;;4861568;29;20057;-81
2023/05/22 00:42:28;;;;;;;33.08;26.98;;;17.20;99.90;;;;;;4831845;29;20043;-81
2023/05/22 00:44:54;;;;;;;33.50;25.65;;;17.10;99.90;;;;;;4873769;29;20537;-82
2023/05/22 00:47:20;;;;;;;32.70;27.60;;;17.10;99.90;;;;;;4849405;29;20590;-82
2023/05/22 00:49:45;;;;;;;34.17;28.70;;;17.10;99.90;;;;;;4860977;29;20436;-81
2023/05/22 00:52:13;;;;;;;34.80;29.05;;;17.10;99.90;;;;;;4845526;29;20044;-81
2023/05/22 00:54:39;;;;;;;31.60;28.13;;;17.00;99.90;;;;;;4864989;29;20048;-81
2023/05/22 00:57:11;;;;;;;38.60;29.60;;;17.00;99.90;;;;;;4854846;29;20051;-81
2023/05/22 00:59:37;;;;;;;38.08;30.83;;;17.00;99.90;;;;;;4871156;29;20052;-81
2023/05/22 01:02:03;;;;;;;37.28;28.30;;;17.00;99.90;;;;;;4849517;29;20176;-81
2023/05/22 01:04:31;;;;;;;33.13;28.00;;;16.90;99.90;;;;;;4856762;29;20041;-81
2023/05/22 01:07:01;;;;;;;36.30;28.15;;;17.00;99.90;;;;;;4868499;29;20041;-82
2023/05/22 01:09:30;;;;;;;38.17;29.05;;;16.90;99.90;;;;;;4868297;29;20052;-82
2023/05/22 01:12:25;;;;;;;33.03;27.75;;;16.90;99.90;;;;;;4883024;29;20064;-81
2023/05/22 01:15:03;;;;;;;33.15;27.75;;;16.90;99.90;;;;;;4871813;29;20048;-81
2023/05/22 01:17:47;;;;;;;31.95;27.10;;;16.90;99.90;;;;;;4850463;29;20040;-82
2023/05/22 01:20:47;;;;;;;35.85;28.98;;;16.90;99.90;;;;;;4874873;29;20131;-81
2023/05/22 01:23:43;;;;;;;33.63;28.45;;;16.90;99.90;;;;;;4836010;29;20779;-81
2023/05/22 01:26:18;;;;;;;34.53;28.45;;;16.90;99.90;;;;;;4858069;29;20107;-81
2023/05/22 01:29:08;;;;;;;36.58;29.90;;;16.80;99.90;;;;;;4863112;29;20073;-81
2023/05/22 01:31:39;;;;;;;34.53;29.13;;;16.90;99.90;;;;;;4857153;29;20068;-82
2023/05/22 01:34:10;;;;;;;36.55;29.83;;;16.90;99.90;;;;;;4861179;29;20048;-81
2023/05/22 01:36:37;;;;;;;37.85;30.75;;;16.80;99.90;;;;;;4866285;29;20045;-81
2023/05/22 01:39:05;;;;;;;37.45;31.73;;;16.80;99.90;;;;;;4859657;29;20053;-81
2023/05/22 01:41:48;;;;;;;36.03;30.10;;;16.80;99.90;;;;;;4863682;29;20080;-81
2023/05/22 01:44:17;;;;;;;37.85;30.98;;;16.80;99.90;;;;;;4872830;29;20127;-81
2023/05/22 01:46:43;;;;;;;37.10;30.25;;;16.80;99.90;;;;;;4881356;29;20089;-82
2023/05/22 01:49:09;;;;;;;35.38;30.63;;;16.80;99.90;;;;;;4878826;29;20135;-82
2023/05/22 01:51:52;;;;;;;36.72;31.10;;;16.80;99.90;;;;;;4850230;29;20057;-81
2023/05/22 01:54:23;;;;;;;37.85;30.92;;;16.80;99.90;;;;;;4848235;29;20041;-81
2023/05/22 01:57:18;;;;;;;34.92;29.90;;;16.80;99.90;;;;;;4834589;29;20070;-81
2023/05/22 01:59:56;;;;;;;36.00;29.42;;;16.80;99.90;;;;;;4830625;29;20520;-81
2023/05/22 02:02:24;;;;;;;35.47;30.13;;;16.80;99.90;;;;;;4846118;29;20053;-81
2023/05/22 02:04:59;;;;;;;38.05;29.92;;;16.80;99.90;;;;;;4865494;29;20433;-81
2023/05/22 02:07:26;;;;;;;38.00;30.38;;;16.80;99.90;;;;;;4880223;29;20101;-82
2023/05/22 02:09:55;;;;;;;37.65;30.38;;;16.80;99.90;;;;;;4866449;29;20108;-82
2023/05/22 02:12:22;;;;;;;38.67;31.85;;;16.80;99.90;;;;;;4886489;29;20112;-81
2023/05/22 02:14:49;;;;;;;40.20;33.30;;;16.80;99.90;;;;;;4852318;29;20049;-81
2023/05/22 02:17:16;;;;;;;37.05;30.73;;;16.80;99.90;;;;;;4866729;29;20135;-81
2023/05/22 02:19:43;;;;;;;33.08;28.83;;;16.80;99.90;;;;;;4852658;29;20421;-82
2023/05/22 02:22:12;;;;;;;37.95;31.58;;;16.90;99.90;;;;;;4853264;29;20052;-81
2023/05/22 02:24:45;;;;;;;36.50;30.60;;;16.90;99.90;;;;;;4852004;29;20052;-81
2023/05/22 02:27:16;;;;;;;40.00;31.77;;;16.80;99.90;;;;;;4881026;29;20040;-82
2023/05/22 02:29:44;;;;;;;36.92;30.55;;;16.80;99.90;;;;;;4864970;29;20105;-82
2023/05/22 02:32:10;;;;;;;38.50;31.90;;;16.80;99.90;;;;;;4897757;29;20112;-82
2023/05/22 02:34:36;;;;;;;37.38;31.60;;;16.80;99.90;;;;;;4870257;29;20052;-82
2023/05/22 02:37:02;;;;;;;36.25;30.80;;;16.80;99.90;;;;;;4862482;29;20051;-82
2023/05/22 02:39:29;;;;;;;35.75;30.10;;;16.80;99.90;;;;;;4880173;29;20049;-82
2023/05/22 02:41:54;;;;;;;37.95;31.52;;;16.90;99.90;;;;;;4872418;29;20055;-82
2023/05/22 02:44:20;;;;;;;37.60;31.33;;;16.90;99.90;;;;;;4870612;29;20127;-82
2023/05/22 02:46:46;;;;;;;37.72;32.05;;;16.90;99.90;;;;;;4849177;29;20690;-82
2023/05/22 02:49:13;;;;;;;37.50;31.35;;;16.90;99.90;;;;;;4886750;29;20048;-81
2023/05/22 02:51:39;;;;;;;36.75;31.08;;;17.00;99.90;;;;;;4888641;29;20052;-82
2023/05/22 02:54:05;;;;;;;38.55;31.67;;;17.00;99.90;;;;;;4872243;29;20046;-82
2023/05/22 02:56:31;;;;;;;36.03;31.67;;;16.90;99.90;;;;;;4895677;29;20048;-82
2023/05/22 02:58:57;;;;;;;36.75;30.75;;;16.90;99.90;;;;;;4871801;29;20084;-82
2023/05/22 03:01:25;;;;;;;36.63;30.55;;;16.80;99.90;;;;;;4877885;29;20076;-82
2023/05/22 03:03:51;;;;;;;34.40;28.38;;;16.80;99.90;;;;;;4882083;29;20088;-82
2023/05/22 03:06:20;;;;;;;38.25;31.63;;;16.80;99.90;;;;;;4873647;29;20048;-82
2023/05/22 03:08:47;;;;;;;36.47;28.98;;;16.80;99.90;;;;;;4864084;29;20124;-82
2023/05/22 03:11:13;;;;;;;36.25;29.58;;;16.80;99.90;;;;;;4877400;29;20065;-81
2023/05/22 03:13:41;;;;;;;37.63;31.15;;;16.80;99.90;;;;;;4880407;29;20033;-81
2023/05/22 03:16:26;;;;;;;40.53;32.03;;;16.80;99.90;;;;;;4865759;29;20499;-81
2023/05/22 03:19:30;;;;;;;41.08;32.50;;;16.80;99.90;;;;;;4862944;29;20177;-81
2023/05/22 03:22:13;;;;;;;37.58;32.67;;;16.70;99.90;;;;;;4844331;29;20053;-81
2023/05/22 03:24:45;;;;;;;40.13;32.03;;;16.70;99.90;;;;;;4862499;29;20049;-81
2023/05/22 03:27:18;;;;;;;38.28;31.35;;;16.60;99.90;;;;;;4852891;29;20053;-82
2023/05/22 03:30:02;;;;;;;37.58;32.20;;;16.70;99.90;;;;;;4876182;29;20056;-81
2023/05/22 03:32:28;;;;;;;41.90;34.00;;;16.60;99.90;;;;;;4891222;29;20048;-82
2023/05/22 03:35:00;;;;;;;42.65;35.13;;;16.60;99.90;;;;;;4879044;29;20041;-80
2023/05/22 03:37:34;;;;;;;46.08;34.78;;;16.70;99.90;;;;;;4864651;29;20733;-81
2023/05/22 03:40:26;;;;;;;;;;;16.60;99.90;;;;;;4841725;29;20128;-81
2023/05/22 03:42:55;;;;;;;42.50;34.08;;;16.60;99.90;;;;;;4850737;29;20030;-85
2023/05/22 03:45:20;;;;;;;42.03;34.22;;;16.60;99.90;;;;;;4864795;29;20049;-84
2023/05/22 03:47:46;;;;;;;39.08;33.08;;;16.60;99.90;;;;;;4877998;29;20184;-81
2023/05/22 03:50:17;;;;;;;43.15;34.95;;;16.60;99.90;;;;;;4863187;29;20124;-84
2023/05/22 03:52:45;;;;;;;40.55;33.90;;;16.60;99.90;;;;;;4877835;29;20049;-85
2023/05/22 03:55:11;;;;;;;39.63;33.22;;;16.60;99.90;;;;;;4855805;29;20044;-82
2023/05/22 03:57:43;;;;;;;40.92;33.60;;;16.60;99.90;;;;;;4847987;29;20101;-81
2023/05/22 04:00:12;;;;;;;;;;;16.60;99.90;;;;;;4847183;29;20087;-83
2023/05/22 04:02:43;;;;;;;42.40;33.45;;;16.60;99.90;;;;;;4849357;29;19920;-82
2023/05/22 04:05:09;;;;;;;40.75;33.22;;;16.60;99.90;;;;;;4860955;29;20123;-81
2023/05/22 04:07:38;;;;;;;38.20;33.55;;;16.60;99.90;;;;;;4880558;29;20135;-81
2023/05/22 04:13:20;;;;;;;41.45;31.98;;;16.70;99.90;;;;;;4857150;29;20053;-82
2023/05/22 04:15:49;;;;;;;39.70;32.03;;;16.70;99.90;;;;;;4854866;29;20056;-82
2023/05/22 04:18:21;;;;;;;39.17;31.40;;;16.70;99.90;;;;;;4860326;29;20155;-81
2023/05/22 04:20:56;;;;;;;42.28;31.85;;;16.70;99.90;;;;;;4861267;29;20076;-81
2023/05/22 04:23:37;;;;;;;38.65;32.58;;;16.70;99.90;;;;;;4846857;29;20039;-81
2023/05/22 04:26:03;;;;;;;37.60;31.58;;;16.70;99.90;;;;;;4861606;29;20076;-82
2023/05/22 04:28:34;;;;;;;37.00;30.40;;;16.80;99.90;;;;;;4850036;29;20140;-81
2023/05/22 04:31:05;;;;;;;38.80;30.80;;;16.80;99.90;;;;;;4846085;29;20064;-82
2023/05/22 04:33:50;;;;;;;38.20;31.45;;;16.70;99.90;;;;;;4835118;29;20040;-81
2023/05/22 04:36:21;;;;;;;36.10;31.42;;;16.80;99.90;;;;;;4834261;29;20052;-82
2023/05/22 04:38:57;;;;;;;37.08;30.15;;;16.80;99.90;;;;;;4850295;29;20540;-81
2023/05/22 04:41:26;;;;;;;37.00;31.15;;;16.70;99.90;;;;;;4855025;29;20408;-82
2023/05/22 04:43:54;;;;;;;37.15;30.45;;;16.70;99.90;;;;;;4864888;29;20040;-83
2023/05/22 04:46:22;;;;;;;38.22;31.58;;;16.70;99.90;;;;;;4861924;29;20508;-85
2023/05/22 04:48:49;;;;;;;38.90;31.77;;;16.70;99.90;;;;;;4868759;29;20041;-83
2023/05/22 04:51:15;;;;;;;34.92;29.95;;;16.70;99.90;;;;;;4865713;29;20147;-81
2023/05/22 04:53:41;;;;;;;35.88;30.38;;;16.70;99.90;;;;;;4853553;29;20093;-82
2023/05/22 04:56:07;;;;;;;34.88;30.38;;;16.70;99.90;;;;;;4828561;29;20053;-81
2023/05/22 04:58:32;;;;;;;37.63;29.83;;;16.70;99.90;;;;;;4867171;29;20047;-84
2023/05/22 05:00:58;;;;;;;35.63;30.80;;;16.70;99.90;;;;;;4841801;29;20042;-84
2023/05/22 05:03:26;;;;;;;36.72;29.40;;;16.70;99.90;;;;;;4850285;29;20033;-85
2023/05/22 05:06:00;;;;;;;34.42;29.20;;;16.80;99.90;;;;;;4847373;29;20044;-84
2023/05/22 05:08:49;;;;;;;33.45;28.48;;;16.80;99.90;;;;;;4866585;29;20059;-84
2023/05/22 05:11:15;;;;;;;33.75;29.33;;;16.80;99.90;;;;;;4838300;29;20057;-80
2023/05/22 05:13:43;;;;;;;34.55;30.10;;;16.80;99.90;;;;;;4857753;29;20057;-81
2023/05/22 05:16:08;;;;;;;37.05;29.95;;;16.80;99.90;;;;;;4863416;29;20052;-83
2023/05/22 05:18:43;;;;;;;;;;;16.70;99.90;;;;;;4844611;29;20060;-84
2023/05/22 05:21:21;;;;;;;33.05;29.08;;;16.70;99.90;;;;;;4854128;29;19924;-86
2023/05/22 05:23:52;;;;;;;37.70;29.70;;;16.70;99.90;;;;;;4846514;29;20049;-82
2023/05/22 05:26:23;;;;;;;38.53;30.75;;;16.70;99.90;;;;;;4836155;29;20067;-86
2023/05/22 05:29:00;;;;;;;40.33;31.67;;;16.70;99.90;;;;;;4865858;29;20036;-82
2023/05/22 05:31:29;;;;;;;38.20;32.13;;;16.70;99.90;;;;;;4848237;29;20041;-82
2023/05/22 05:34:16;;;;;;;37.35;32.60;;;16.70;99.90;;;;;;4846325;29;20048;-85
2023/05/22 05:36:51;;;;;;;38.03;31.92;;;16.60;99.90;;;;;;4874638;29;20049;-84
2023/05/22 05:39:23;;;;;;;41.00;33.63;;;16.60;99.90;;;;;;4881631;29;20518;-81
2023/05/22 05:41:59;;;;;;;40.30;33.28;;;16.60;99.90;;;;;;4872902;29;20471;-86
2023/05/22 05:44:25;;;;;;;38.00;32.95;;;16.50;99.90;;;;;;4855856;29;20132;-82
2023/05/22 05:47:13;;;;;;;38.72;34.58;;;16.50;99.90;;;;;;4887435;29;20476;-82
2023/05/22 05:49:42;;;;;;;43.80;34.90;;;16.50;99.90;;;;;;4895730;29;20037;-82
2023/05/22 05:52:13;;;;;;;46.25;36.55;;;16.50;99.90;;;;;;4893954;29;20145;-81
2023/05/22 05:54:48;;;;;;;41.55;33.72;;;16.50;99.90;;;;;;4858577;29;20048;-80
2023/05/22 05:57:14;;;;;;;47.10;36.90;;;16.40;99.90;;;;;;4879835;29;20044;-82
2023/05/22 05:59:40;;;;;;;43.67;35.60;;;16.40;99.90;;;;;;4891534;29;20059;-84
2023/05/22 06:02:06;;;;;;;42.47;34.60;;;16.40;99.90;;;;;;4867733;29;20053;-83
2023/05/22 06:04:31;;;;;;;45.30;35.38;;;16.40;99.90;;;;;;4860269;29;20049;-84
2023/05/22 06:07:48;;;;;;;45.45;36.05;;;16.40;99.90;;;;;;4874211;29;20045;-83
2023/05/22 06:10:28;;;;;;;43.50;36.05;;;16.40;99.90;;;;;;4863217;29;20401;-84
2023/05/22 06:12:53;;;;;;;43.17;35.58;;;16.40;99.90;;;;;;4863649;29;20052;-82
2023/05/22 06:15:22;;;;;;;42.75;35.05;;;16.30;99.90;;;;;;4876386;29;20054;-83
2023/05/22 06:17:49;;;;;;;41.53;33.63;;;16.30;99.90;;;;;;4898056;29;20040;-84
2023/05/22 06:20:21;;;;;;;41.67;33.63;;;16.30;99.90;;;;;;4882100;29;20040;-83
2023/05/22 06:22:57;;;;;;;43.30;34.38;;;16.30;99.90;;;;;;4881506;29;20128;-83
2023/05/22 06:25:28;;;;;;;44.80;34.00;;;16.30;99.90;;;;;;4863573;29;20052;-81
2023/05/22 06:28:02;;;;;;;43.38;32.40;;;16.30;99.90;;;;;;4860043;29;20048;-84
2023/05/22 06:30:46;;;;;;;41.50;33.58;;;16.30;99.90;;;;;;4881985;29;20492;-84
2023/05/22 06:33:13;;;;;;;41.40;32.88;;;16.30;99.90;;;;;;4864639;29;20053;-81
2023/05/22 06:35:39;;;;;;;41.05;33.05;;;16.30;99.90;;;;;;4872874;29;20048;-82
2023/05/22 06:38:15;;;;;;;39.17;32.90;;;16.30;99.90;;;;;;4881109;29;20061;-86
2023/05/22 06:40:48;;;;;;;42.67;34.15;;;16.30;99.90;;;;;;4866133;29;20045;-82
2023/05/22 06:43:22;;;;;;;41.92;33.58;;;16.30;99.90;;;;;;4864088;29;20045;-82
2023/05/22 06:45:56;;;;;;;45.83;33.88;;;16.30;99.90;;;;;;4883789;29;20037;-83
2023/05/22 06:48:42;;;;;;;41.22;32.90;;;16.30;99.90;;;;;;4879200;29;20033;-83
2023/05/22 06:51:11;;;;;;;40.08;32.55;;;16.20;99.90;;;;;;4863478;29;20057;-82
2023/05/22 06:53:43;;;;;;;39.33;32.00;;;16.20;99.90;;;;;;4864269;29;20070;-82
2023/05/22 06:56:24;;;;;;;39.97;33.10;;;16.20;99.90;;;;;;4863654;29;20048;-84
2023/05/22 06:58:49;;;;;;;39.03;31.65;;;16.30;99.90;;;;;;4880028;29;20059;-84
2023/05/22 07:01:28;;;;;;;;;;;;;;;;;;;;;
2023/05/22 07:04:04;;;;;;;41.40;31.73;;;16.30;99.90;;;;;;4865928;29;20105;-85
2023/05/22 07:06:37;;;;;;;36.35;30.67;;;16.30;99.90;;;;;;4889335;29;20049;-83
2023/05/22 07:09:12;;;;;;;38.30;30.48;;;16.20;99.90;;;;;;4869286;29;20096;-83
2023/05/22 07:11:38;;;;;;;39.60;31.73;;;16.30;99.90;;;;;;4869268;29;20468;-83
2023/05/22 07:14:07;;;;;;;39.67;30.70;;;16.30;99.90;;;;;;4878750;29;20128;-82
2023/05/22 07:16:35;;;;;;;38.83;30.25;;;16.30;99.90;;;;;;4895360;29;20440;-85
2023/05/22 07:19:20;;;;;;;39.25;30.25;;;16.40;99.90;;;;;;4873209;29;20120;-83
2023/05/22 07:21:49;;;;;;;34.75;29.23;;;16.40;99.90;;;;;;4881509;29;20057;-83
2023/05/22 07:24:18;;;;;;;36.28;28.83;;;16.50;99.90;;;;;;4881376;29;20489;-86
2023/05/22 07:26:55;;;;;;;35.90;27.35;;;16.50;99.90;;;;;;4892848;29;20076;-84
2023/05/22 07:29:27;;;;;;;37.65;28.80;;;16.60;99.90;;;;;;4864414;29;20161;-84
2023/05/22 07:31:53;;;;;;;34.95;27.83;;;16.70;99.90;;;;;;4874576;29;20155;-82
2023/05/22 07:34:39;;;;;;;32.90;27.52;;;16.70;99.90;;;;;;4881864;29;20060;-84
2023/05/22 07:37:12;;;;;;;32.90;25.75;;;16.80;99.90;;;;;;4894472;29;20056;-83
2023/05/22 07:39:55;;;;;;;32.40;26.98;;;16.90;99.90;;;;;;4862987;29;20113;-84
2023/05/22 07:42:28;;;;;;;31.42;24.88;;;17.00;99.90;;;;;;4874498;29;20433;-85
2023/05/22 07:45:05;;;;;;;28.73;23.27;;;17.20;99.90;;;;;;4889432;29;20053;-83
2023/05/22 07:47:33;;;;;;;28.20;24.13;;;17.20;99.90;;;;;;4862285;29;20084;-84
2023/05/22 07:50:03;;;;;;;27.63;22.52;;;17.30;99.90;;;;;;4881976;29;20396;-83
2023/05/22 07:52:47;;;;;;;27.45;21.88;;;17.20;99.90;;;;;;4872050;29;20044;-84
2023/05/22 07:55:16;;;;;;;24.90;21.33;;;17.20;99.90;;;;;;4869390;29;20682;-82
2023/05/22 07:57:46;;;;;;;27.55;21.23;;;17.20;99.90;;;;;;4852045;29;20099;-83
2023/05/22 08:00:33;;;;;;;23.90;20.60;;;17.10;99.90;;;;;;4868203;29;20500;-83
2023/05/22 08:03:01;;;;;;;22.55;20.20;;;17.10;99.90;;;;;;4883985;29;20040;-84
2023/05/22 08:05:27;;;;;;;24.05;21.38;;;17.00;99.90;;;;;;4880257;29;20092;-84
2023/05/22 08:07:55;;;;;;;22.77;20.30;;;17.00;99.90;;;;;;4871126;29;20041;-82
2023/05/22 08:10:50;;;;;;;24.48;20.00;;;17.00;99.90;;;;;;4847514;29;20048;-84
2023/05/22 08:13:23;;;;;;;26.98;20.75;;;16.90;99.90;;;;;;4887617;29;20053;-83
2023/05/22 08:15:54;;;;;;;24.80;21.52;;;16.90;99.90;;;;;;4862920;29;20055;-85
2023/05/22 08:18:33;;;;;;;24.75;19.33;;;16.90;99.90;;;;;;4859254;29;20058;-83
2023/05/22 08:21:06;;;;;;;25.38;20.15;;;16.90;99.90;;;;;;4881717;29;20115;-86
2023/05/22 08:23:37;;;;;;;22.55;19.10;;;16.90;99.90;;;;;;4865861;29;20055;-85
2023/05/22 08:26:10;;;;;;;23.90;20.00;;;16.90;99.90;;;;;;4896068;29;20103;-83
2023/05/22 08:28:51;;;;;;;25.45;19.63;;;17.00;99.90;;;;;;4864267;29;20111;-83
2023/05/22 08:31:26;;;;;;;23.75;20.02;;;17.00;99.90;;;;;;4850957;29;20044;-86
2023/05/22 08:34:09;;;;;;;22.63;19.52;;;17.00;99.90;;;;;;4852804;29;20056;-84
2023/05/22 08:36:41;;;;;;;25.75;20.15;;;17.10;99.90;;;;;;4865924;29;20582;-85
2023/05/22 08:39:09;;;;;;;26.42;19.25;;;17.10;99.90;;;;;;4867770;29;20048;-82
2023/05/22 08:41:42;;;;;;;23.83;19.50;;;17.20;99.90;;;;;;4895894;29;20505;-83
2023/05/22 08:44:18;;;;;;;25.08;19.20;;;17.20;99.90;;;;;;4881673;29;20068;-83
2023/05/22 08:46:58;;;;;;;22.63;18.80;;;17.20;99.90;;;;;;4867791;29;20079;-81
2023/05/22 08:49:30;;;;;;;23.27;19.48;;;17.20;99.90;;;;;;4861276;29;20080;-84
2023/05/22 08:52:15;;;;;;;24.67;19.90;;;17.20;99.90;;;;;;4862277;29;20508;-84
2023/05/22 08:54:48;;;;;;;26.42;20.50;;;17.20;99.90;;;;;;4863140;29;20404;-82
2023/05/22 08:57:22;;;;;;;26.52;20.25;;;17.20;99.90;;;;;;4867836;29;20799;-82
2023/05/22 08:59:51;;;;;;;27.20;20.05;;;17.20;99.90;;;;;;4860493;29;20493;-83
2023/05/22 09:02:35;;;;;;;24.33;20.30;;;17.30;99.90;;;;;;4860850;29;20049;-84
2023/05/22 09:05:08;;;;;;;22.77;18.65;;;17.30;99.90;;;;;;4845223;29;20079;-83
2023/05/22 09:07:38;;;;;;;26.48;18.45;;;17.30;99.90;;;;;;4860048;29;20053;-85
2023/05/22 09:10:23;;;;;;;23.83;18.17;;;17.40;99.90;;;;;;4865775;29;20448;-83
2023/05/22 09:13:29;;;;;;;26.20;18.58;;;17.40;99.90;;;;;;4879495;29;20049;-83
2023/05/22 09:16:24;;;;;;;24.83;18.02;;;17.40;99.90;;;;;;4869152;29;20060;-84
2023/05/22 09:18:49;;;;;;;22.10;16.48;;;17.40;99.90;;;;;;4872175;29;20092;-83
2023/05/22 09:21:18;;;;;;;20.67;16.30;;;17.40;99.90;;;;;;4882403;29;20044;-83
2023/05/22 09:23:57;;;;;;;22.55;17.02;;;17.40;99.90;;;;;;4866896;29;20045;-85
2023/05/22 09:26:31;;;;;;;21.88;16.95;;;17.40;99.90;;;;;;4845917;29;20045;-84
2023/05/22 09:29:05;;;;;;;22.83;15.80;;;17.40;99.90;;;;;;4875211;29;20056;-81
2023/05/22 09:31:31;;;;;;;22.92;16.92;;;17.50;99.90;;;;;;4865001;29;20052;-82
2023/05/22 09:34:50;;;;;;;26.40;16.73;;;17.50;99.90;;;;;;4874746;29;20056;-83
2023/05/22 09:37:39;;;;;;;30.85;17.55;;;17.50;99.90;;;;;;4879386;29;20037;-85
2023/05/22 09:40:14;;;;;;;27.65;17.13;;;17.60;99.90;;;;;;4880008;29;20135;-84
2023/05/22 09:46:22;;;;;;;24.42;16.55;;;17.60;99.90;;;;;;4830264;29;20621;-84
2023/05/22 09:48:52;;;;;;;30.63;17.40;;;17.50;99.90;;;;;;4859864;29;20135;-80
2023/05/22 09:51:35;;;;;;;32.17;18.30;;;17.60;99.90;;;;;;4866360;29;20053;-86
2023/05/22 09:54:10;;;;;;;27.10;17.30;;;17.50;99.90;;;;;;4873471;29;20396;-84
2023/05/22 09:56:53;;;;;;;27.58;17.83;;;17.60;99.90;;;;;;4883175;29;20055;-82
2023/05/22 09:59:28;;;;;;;26.42;17.38;;;17.50;99.90;;;;;;4866187;29;20053;-80
2023/05/22 10:02:12;;;;;;;25.92;17.58;;;17.50;99.90;;;;;;4867588;29;20049;-83
2023/05/22 10:04:54;;;;;;;27.17;17.73;;;17.50;99.90;;;;;;4873919;29;20081;-83
2023/05/22 10:07:48;;;;;;;28.85;17.60;;;17.50;99.90;;;;;;4864516;29;20052;-84
2023/05/22 10:10:25;;;;;;;26.73;18.77;;;17.60;99.90;;;;;;4891396;29;20048;-81
2023/05/22 10:13:03;;;;;;;31.58;18.15;;;17.70;99.90;;;;;;4874870;29;20083;-83
2023/05/22 10:15:30;;;;;;;31.45;18.67;;;17.70;99.90;;;;;;4864160;29;20059;-83
2023/05/22 10:18:01;;;;;;;28.20;17.80;;;17.80;99.90;;;;;;4878729;29;20496;-82
2023/05/22 10:20:33;;;;;;;26.83;17.50;;;17.90;99.90;;;;;;4864163;29;20126;-83
2023/05/22 10:23:04;;;;;;;30.70;18.80;;;18.00;99.90;;;;;;4864092;29;20040;-83
2023/05/22 10:25:31;;;;;;;26.08;17.70;;;18.10;99.90;;;;;;4877670;29;20045;-82
2023/05/22 10:28:03;;;;;;;26.92;18.50;;;18.10;99.90;;;;;;4880074;29;20045;-83
2023/05/22 10:30:50;;;;;;;;;;;18.10;99.90;;;;;;4871914;29;20503;-83
2023/05/22 10:33:46;;;;;;;29.20;19.20;;;18.20;99.90;;;;;;4883559;29;19919;-83
2023/05/22 10:36:46;;;;;;;31.75;20.25;;;18.40;99.90;;;;;;4880462;29;20396;-83
2023/05/22 10:39:50;;;;;;;26.00;19.55;;;18.60;99.90;;;;;;4863736;29;20064;-85
2023/05/22 10:42:18;;;;;;;27.58;19.35;;;18.60;99.90;;;;;;4878454;29;20041;-82
2023/05/22 10:44:56;;;;;;;28.83;19.30;;;18.70;99.90;;;;;;4867255;29;20166;-83
2023/05/22 10:47:25;;;;;;;24.58;18.02;;;19.10;99.90;;;;;;4866363;29;20052;-83
2023/05/22 10:50:08;;;;;;;26.95;18.63;;;19.20;99.90;;;;;;4864019;29;20057;-79
2023/05/22 10:52:35;;;;;;;20.35;17.50;;;19.40;99.90;;;;;;4870041;29;20845;-85
2023/05/22 10:55:10;;;;;;;22.63;18.45;;;19.70;99.90;;;;;;4872075;29;20049;-87
2023/05/22 10:57:45;;;;;;;22.90;17.63;;;20.00;99.90;;;;;;4855589;29;20056;-81
2023/05/22 11:00:38;;;;;;;22.40;17.63;;;20.10;99.90;;;;;;4857171;29;20481;-84
2023/05/22 11:03:07;;;;;;;21.98;17.08;;;20.30;99.90;;;;;;4860340;29;20065;-88
2023/05/22 11:06:06;;;;;;;22.92;16.90;;;20.70;99.90;;;;;;4858158;29;20105;-85
2023/05/22 11:08:44;;;;;;;;;;;21.00;99.90;;;;;;4814904;29;20062;-85
2023/05/22 11:11:47;;;;;;;22.80;18.38;;;21.20;99.90;;;;;;4840800;29;19920;-84
2023/05/22 11:15:06;;;;;;;22.70;18.75;;;21.10;99.90;;;;;;4872106;29;20064;-84
2023/05/22 11:18:15;;;;;;;24.13;19.45;;;21.00;99.90;;;;;;4874599;29;20044;-84
2023/05/22 11:20:43;;;;;;;22.58;18.67;;;20.90;99.90;;;;;;4857057;29;20059;-83
2023/05/22 11:24:22;;;;;;;24.50;19.08;;;20.90;99.90;;;;;;4841471;29;20049;-84
2023/05/22 11:27:15;;;;;;;23.35;20.65;;;21.20;99.90;;;;;;4862843;29;20052;-84
2023/05/22 11:29:47;;;;;;;27.38;20.33;;;21.50;99.90;;;;;;4851685;29;20140;-82
2023/05/22 11:32:19;;;;;;;30.90;22.63;;;21.70;99.90;;;;;;4843137;29;20040;-82
2023/05/22 11:34:46;;;;;;;25.98;22.02;;;21.80;99.90;;;;;;4873616;29;20491;-82
2023/05/22 11:37:12;;;;;;;24.17;21.42;;;21.80;99.90;;;;;;4856186;29;20045;-81
2023/05/22 11:39:38;;;;;;;25.55;21.60;;;21.70;99.90;;;;;;4858141;29;20140;-82
2023/05/22 11:42:06;;;;;;;27.27;21.92;;;21.70;99.90;;;;;;4856542;29;20108;-85
2023/05/22 11:44:32;;;;;;;28.10;21.90;;;21.70;99.90;;;;;;4853727;29;20413;-83
2023/05/22 11:47:01;;;;;;;24.70;21.42;;;21.70;99.90;;;;;;4856731;29;20041;-82
2023/05/22 11:49:27;;;;;;;26.35;21.55;;;21.90;99.90;;;;;;4871075;29;20037;-81
2023/05/22 11:51:56;;;;;;;25.60;22.90;;;22.10;99.90;;;;;;4870535;29;20085;-82
2023/05/22 11:54:22;;;;;;;23.98;20.50;;;22.40;99.90;;;;;;4870971;29;20044;-82
2023/05/22 11:56:47;;;;;;;22.35;19.42;;;22.80;99.90;;;;;;4871017;29;20064;-82
2023/05/22 11:59:13;;;;;;;26.00;20.17;;;23.20;99.90;;;;;;4857058;29;20093;-84
2023/05/22 12:01:39;;;;;;;29.00;20.67;;;23.40;99.90;;;;;;4856501;29;20049;-83
2023/05/22 12:04:08;;;;;;;24.02;19.17;;;23.40;99.90;;;;;;4854759;29;20073;-84
2023/05/22 12:07:04;;;;;;;;;;;;;;;;;;;;;
2023/05/22 12:10:40;;;;;;;;;;;;;;;;;;;;;
2023/05/22 12:28:35;;;;;;;22.70;20.27;;;24.30;99.90;;;;;;4791736;29;20042;-84
2023/05/22 12:31:32;;;;;;;24.33;21.77;;;24.40;99.90;;;;;;4788311;29;20486;-85
2023/05/22 12:34:26;;;;;;;24.65;22.05;;;24.30;99.90;;;;;;4786397;29;20081;-83
2023/05/22 12:41:19;;;;;;;23.05;20.10;;;24.30;99.90;;;;;;4778185;29;20061;-82
2023/05/22 12:47:40;;;;;;;23.33;20.42;;;24.90;99.90;;;;;;4790792;29;20062;-84
2023/05/22 12:50:13;;;;;;;24.50;20.95;;;25.00;99.90;;;;;;4873216;29;21364;-83
2023/05/22 12:53:39;;;;;;;;;;;;;;;;;;;;;
2023/05/22 12:56:10;;;;;;;24.67;22.17;;;25.00;99.90;;;;;;4872203;29;20072;-82
2023/05/22 13:02:10;;;;;;;20.45;18.23;;;24.80;99.90;;;;;;4823793;29;20465;-82
2023/05/22 13:08:50;;;;;;;;;;;;;;;;;;;;;
2023/05/22 13:12:08;;;;;;;20.52;17.33;;;25.60;99.90;;;;;;4835492;29;20395;-84
2023/05/22 13:15:10;;;;;;;18.65;16.48;;;25.80;99.90;;;;;;4803825;29;20058;-84
2023/05/22 13:22:23;;;;;;;17.17;15.35;;;25.80;99.90;;;;;;4728470;30;20056;-84
2023/05/22 13:25:25;;;;;;;18.60;16.70;;;25.40;99.90;;;;;;4713687;30;20496;-83
2023/05/22 13:28:25;;;;;;;18.50;16.50;;;25.00;99.90;;;;;;4728173;30;20049;-82
2023/05/22 13:31:47;;;;;;;19.48;16.58;;;24.60;99.90;;;;;;4777322;29;20059;-84
2023/05/22 13:34:45;;;;;;;20.02;18.02;;;24.10;99.90;;;;;;4753328;29;20054;-82
2023/05/22 13:38:53;;;;;;;19.58;17.67;;;23.80;99.90;;;;;;4766492;29;20166;-81
2023/05/22 13:40:59;;;;;;;25.58;17.90;;;23.50;99.90;;;;;;4755392;30;20138;-85
2023/05/22 13:46:47;;;;;;;22.88;20.30;;;23.20;99.90;;;;;;4830418;29;20054;-84
2023/05/22 13:49:16;;;;;;;27.10;22.35;;;22.90;99.90;;;;;;4835488;29;20061;-84
2023/05/22 13:52:02;;;;;;;25.23;22.52;;;22.80;99.90;;;;;;4806528;29;20148;-83
2023/05/22 13:54:40;;;;;;;27.27;23.70;;;22.60;99.90;;;;;;4809607;29;20049;-82
2023/05/22 13:57:17;;;;;;;28.00;23.77;;;22.40;99.90;;;;;;4828324;29;20118;-85
2023/05/22 13:59:51;;;;;;;27.35;23.95;;;22.40;99.90;;;;;;4856873;29;20132;-85
2023/05/22 14:02:19;;;;;;;27.10;23.77;;;22.30;99.90;;;;;;4840587;29;20067;-81